Flight Track Log - Related Links

Times and Time Zones

All times are in EDT time to prevent confusion due to time zone crossing. See the N160UP flight status page for this flight to view local times or setup timezone preferences in your user account.

Time Position Orientation Groundspeed Altitude Reporting Facility
EDT Latitude Longitude Course Direction KTS MPH feet Rate Location/Type
Tue 10:51:34 AM 33.8360 -81.1229 265° West 288 331 8,900  Level FlightAware ADS-B
Tue 10:51:52 AM 33.8350 -81.1520 268° West 293 337 9,800 1,963 Climbing FlightAware ADS-B
Tue 10:53:21 AM 33.8283 -81.3296 267° West 405 466 12,400 2,371 Climbing FlightAware ADS-B
Tue 10:55:17 AM 33.8121 -81.6016 266° West 436 502 17,900 2,757 Climbing FlightAware ADS-B
Tue 10:55:49 AM 33.8078 -81.6795 266° West 439 505 19,200 2,400 Climbing FlightAware ADS-B
Tue 10:56:22 AM 33.8040 -81.7624 267° West 455 524 20,500 2,328 Climbing FlightAware ADS-B
Tue 10:56:56 AM 33.8009 -81.8482 270° West 462 532 21,800 2,385 Climbing FlightAware ADS-B
Tue 10:57:40 AM 33.8005 -81.9611 270° West 468 539 23,600 2,530 Climbing FlightAware ADS-B
Tue 10:58:19 AM 33.7999 -82.0642 269° West 475 547 25,300 1,805 Climbing FlightAware ADS-B
Tue 10:59:43 AM 33.7961 -82.2764 269° West 469 540 27,300 1,875 Climbing Atlanta Center
Tue 11:00:43 AM 33.7986 -82.4439 271° West 494 568 29,800 2,300 Climbing Atlanta Center
Tue 11:01:43 AM 33.7922 -82.6042 267° West 494 568 31,900 1,950 Climbing Atlanta Center
Tue 11:02:43 AM 33.7897 -82.7639 269° West 494 568 33,700 1,600 Climbing Atlanta Center
Tue 11:03:43 AM 33.7892 -82.9189 270° West 483 556 35,100 1,150 Climbing Atlanta Center
Tue 11:04:43 AM 33.7842 -83.0764 268° West 476 548 36,000 450 Climbing Atlanta Center
Tue 11:05:43 AM 33.7853 -83.2314 271° West 476 548 36,000  Level Atlanta Center
Tue 11:06:43 AM 33.7800 -83.3864 268° West 476 548 36,000  Level Atlanta Center
Tue 11:07:43 AM 33.7786 -83.5389 269° West 471 542 36,000  Level Atlanta Center
Tue 11:08:43 AM 33.7750 -83.6964 268° West 471 542 36,000  Level Atlanta Center
Tue 11:09:43 AM 33.7711 -83.8539 268° West 471 542 36,000  Level Atlanta Center
Tue 11:10:43 AM 33.7692 -84.0114 269° West 476 548 36,000  Level Atlanta Center
Tue 11:11:43 AM 33.7650 -84.1661 268° West 476 548 36,000  Level Atlanta Center
Tue 11:12:43 AM 33.7583 -84.3261 267° West 481 554 36,000  Level Atlanta Center
Tue 11:13:43 AM 33.7558 -84.4811 269° West 475 547 36,000  Level Atlanta Center
Tue 11:14:43 AM 33.7553 -84.6236 270° West 470 541 36,000  Level Atlanta Center
Tue 11:15:43 AM 33.7419 -84.7758 264° West 470 541 36,000  Level Atlanta Center
Tue 11:16:43 AM 33.7200 -84.9303 260° West 480 552 36,000  Level Atlanta Center
Tue 11:17:43 AM 33.6981 -85.0875 261° West 480 552 36,000  Level Atlanta Center
Tue 11:23:06 AM 33.5762 -85.9279 260° West 466 536 36,000  Level FlightAware ADS-B (KMDQ)
Tue 11:23:48 AM 33.5613 -86.0292 260° West 467 537 36,000  Level FlightAware ADS-B (KMDQ)
Tue 11:25:09 AM 33.5301 -86.2392 260° West 468 539 36,000  Level FlightAware ADS-B (KMDQ)
Tue 11:25:50 AM 33.5145 -86.3429 260° West 467 537 36,000  Level FlightAware ADS-B (KMDQ)
Tue 11:26:28 AM 33.4997 -86.4409 260° West 468 539 36,000  Level FlightAware ADS-B (KMDQ)
Tue 11:27:09 AM 33.4843 -86.5428 260° West 468 539 36,000  Level FlightAware ADS-B (KMDQ)
Tue 11:27:49 AM 33.4684 -86.6469 260° West 469 540 36,000  Level FlightAware ADS-B (KMDQ)
Tue 11:28:19 AM 33.4566 -86.7243 260° West 468 539 36,000  Level FlightAware ADS-B (KMDQ)
Tue 11:28:49 AM 33.4451 -86.7989 260° West 468 539 36,000 345 Level FlightAware ADS-B (KMDQ)
Tue 11:29:46 AM 33.4224 -86.9454 260° West 470 541 36,500 541 Climbing FlightAware ADS-B (KMDQ)
Tue 11:30:40 AM 33.4014 -87.0813 260° West 470 541 37,000 256 Climbing FlightAware ADS-B (KMDQ)
Tue 11:31:43 AM 33.3728 -87.2353 260° West 470 541 37,000  Level Atlanta Center
Tue 11:32:44 AM 33.3500 -87.3861 260° West 470 541 37,000  Level Atlanta Center
Tue 11:35:09 AM 33.2942 -87.7517 260° West 465 535 37,000  Level Memphis Center
Tue 11:36:11 AM 33.2686 -87.9089 259° West 465 535 37,000  Level Memphis Center
Tue 11:37:13 AM 33.2444 -88.0564 259° West 466 536 37,000  Level Memphis Center
Tue 11:38:15 AM 33.2189 -88.2089 259° West 467 537 37,000  Level Memphis Center
Tue 11:39:17 AM 33.1931 -88.3642 259° West 467 537 37,000  Level Memphis Center
Tue 11:40:19 AM 33.1678 -88.5156 259° West 467 537 37,000  Level Memphis Center
Tue 11:41:21 AM 33.1364 -88.6992 259° West 467 537 37,000  Level Memphis Center
Tue 11:42:23 AM 33.1106 -88.8494 258° West 467 537 37,000  Level Memphis Center
Tue 11:43:25 AM 33.0842 -89.0031 258° West 468 539 37,000 -194 Level Memphis Center
Tue 11:44:27 AM 33.0564 -89.1625 258° West 469 540 36,600 -484 Descending Memphis Center
Tue 11:45:29 AM 33.0314 -89.3058 258° West 470 541 36,000 -290 Descending Memphis Center
Tue 11:46:31 AM 33.0047 -89.4569 258° West 469 540 36,000  Level Memphis Center
Tue 11:47:33 AM 32.9772 -89.6108 258° West 470 541 36,000  Level Memphis Center
Tue 11:48:35 AM 32.9442 -89.7939 258° West 472 543 36,000  Level Memphis Center
Tue 11:49:37 AM 32.9164 -89.9486 258° West 473 544 36,000  Level Memphis Center
Tue 11:50:39 AM 32.8883 -90.1014 258° West 474 545 36,000  Level Memphis Center
Tue 11:51:41 AM 32.8600 -90.2556 258° West 474 545 36,000  Level Memphis Center
Tue 11:52:43 AM 32.8319 -90.4067 258° West 473 544 36,000  Level Memphis Center
Tue 11:53:45 AM 32.8039 -90.5589 258° West 473 544 36,000  Level Memphis Center
Tue 11:54:47 AM 32.7692 -90.7436 257° West 474 545 36,000  Level Memphis Center
Tue 11:55:49 AM 32.7403 -90.8964 257° West 475 547 36,000  Level Memphis Center
Tue 11:56:51 AM 32.7111 -91.0481 257° West 474 545 36,000  Level Memphis Center
Tue 12:03:41 PM 32.5127 -92.1033 266° West 477 549 36,000  Level FlightAware ADS-B (KHPY)
Tue 12:05:29 PM 32.4943 -92.3721 266° West 478 550 36,000  Level FlightAware ADS-B (KHPY)
Tue 12:07:52 PM 32.4684 -92.7588 265° West 478 550 36,000  Level FlightAware ADS-B
Tue 12:08:30 PM 32.4617 -92.8575 265° West 479 551 36,000  Level FlightAware ADS-B
Tue 12:09:07 PM 32.4555 -92.9474 265° West 479 551 36,000  Level FlightAware ADS-B
Tue 12:09:51 PM 32.4475 -93.0621 265° West 478 550 36,000  Level FlightAware ADS-B
Tue 12:10:31 PM 32.4403 -93.1636 265° West 475 547 36,000  Level FlightAware ADS-B
Tue 12:11:21 PM 32.4304 -93.3017 265° West 475 547 36,000  Level FlightAware ADS-B
Tue 12:11:31 PM 32.4285 -93.3276 266° West 474 545 36,000  Level FlightAware ADS-B (KHPY)
Tue 12:11:58 PM 32.4283 -93.3298 266° West 474 545 36,000  Level FlightAware ADS-B (KHPY)
Tue 12:12:02 PM 32.4227 -93.4064 265° West 475 547 36,000  Level FlightAware ADS-B
Tue 12:12:41 PM 32.4154 -93.5067 265° West 477 549 36,000  Level FlightAware ADS-B
Tue 12:13:01 PM 32.4164 -93.4929 266° West 475 547 36,000  Level FlightAware ADS-B (KHPY)
Tue 12:13:22 PM 32.4077 -93.6127 265° West 478 550 36,000  Level FlightAware ADS-B
Tue 12:13:32 PM 32.4056 -93.6393 265° West 478 550 36,000  Level FlightAware ADS-B (KHPY)
Tue 12:14:02 PM 32.3997 -93.7180 265° West 479 551 36,000  Level FlightAware ADS-B
Tue 12:14:32 PM 32.3941 -93.7920 265° West 477 549 36,000  Level FlightAware ADS-B (KHPY)
Tue 12:14:42 PM 32.3918 -93.8225 265° West 478 550 36,000  Level FlightAware ADS-B
Tue 12:15:01 PM 32.3881 -93.8698 265° West 477 549 36,000  Level FlightAware ADS-B (KHPY)
Tue 12:15:31 PM 32.3819 -93.9505 265° West 478 550 36,000  Level FlightAware ADS-B (KHPY)
Tue 12:15:32 PM 32.3818 -93.9518 265° West 478 550 36,000  Level FlightAware ADS-B
Tue 12:16:01 PM 32.3778 -94.0029 265° West 479 551 36,000  Level FlightAware ADS-B (KHPY)
Tue 12:16:11 PM 32.3748 -94.0424 265° West 479 551 36,000  Level FlightAware ADS-B
Tue 12:16:30 PM 32.3700 -94.1027 265° West 479 551 36,000  Level FlightAware ADS-B (KHPY)
Tue 12:17:01 PM 32.3637 -94.1824 265° West 479 551 36,000  Level FlightAware ADS-B (KHPY)
Tue 12:17:17 PM 32.3602 -94.2260 265° West 478 550 36,000  Level FlightAware ADS-B
Tue 12:17:30 PM 32.3579 -94.2546 265° West 477 549 36,000  Level FlightAware ADS-B (KHPY)
Tue 12:17:58 PM 32.3518 -94.3300 265° West 476 548 36,000  Level FlightAware ADS-B
Tue 12:18:00 PM 32.3512 -94.3378 265° West 476 548 36,000  Level FlightAware ADS-B (KHPY)
Tue 12:18:28 PM 32.3472 -94.3866 265° West 476 548 36,000  Level FlightAware ADS-B
Tue 12:18:49 PM 32.3415 -94.4586 265° West 476 548 36,000  Level FlightAware ADS-B
Tue 12:19:04 PM 32.3384 -94.4955 265° West 476 548 36,000  Level FlightAware ADS-B
Tue 12:19:31 PM 32.3322 -94.5712 265° West 473 544 36,000  Level FlightAware ADS-B (KHPY)
Tue 12:19:59 PM 32.3314 -94.5809 265° West 472 543 36,000  Level FlightAware ADS-B
Tue 12:20:28 PM 32.3201 -94.7168 265° West 471 542 36,000  Level FlightAware ADS-B
Tue 12:20:57 PM 32.3154 -94.7727 265° West 470 541 36,000 -429 Level FlightAware ADS-B
Tue 12:21:24 PM 32.3089 -94.8491 265° West 474 545 35,600 -727 Descending FlightAware ADS-B
Tue 12:21:30 PM 32.3078 -94.8621 265° West 474 545 35,600 -973 Level FlightAware ADS-B (KHPY)
Tue 12:22:01 PM 32.2999 -94.9544 265° West 474 545 35,000 -909 Descending FlightAware ADS-B (KHPY)
Tue 12:22:03 PM 32.3008 -94.9435 265° West 474 545 35,100 -938 Climbing FlightAware ADS-B
Tue 12:22:33 PM 32.2932 -95.0330 265° West 473 544 34,500 -1,161 Descending FlightAware ADS-B
Tue 12:23:05 PM 32.2899 -95.0718 265° West 472 543 33,900 -1,100 Descending FlightAware ADS-B
Tue 12:23:33 PM 32.2800 -95.1867 265° West 474 545 33,400 -1,000 Descending FlightAware ADS-B
Tue 12:23:53 PM 32.2758 -95.2237 252° West 472 543 33,100 -968 Descending FlightAware ADS-B
Tue 12:24:04 PM 32.2630 -95.2653 254° West 472 543 32,900 -1,000 Descending FlightAware ADS-B (KHPY)
Tue 12:24:23 PM 32.2440 -95.3123 245° Southwest 473 544 32,600 -938 Descending FlightAware ADS-B
Tue 12:24:36 PM 32.2310 -95.3445 245° Southwest 474 545 32,400 -1,000 Descending FlightAware ADS-B (KHPY)
Tue 12:24:53 PM 32.2166 -95.3807 245° Southwest 475 547 32,100 -1,000 Descending FlightAware ADS-B
Tue 12:25:06 PM 32.2041 -95.4122 246° West 476 548 31,900 -1,200 Descending FlightAware ADS-B (KHPY)
Tue 12:25:18 PM 32.1940 -95.4382 246° West 477 549 31,600 -1,071 Descending FlightAware ADS-B
Tue 12:25:34 PM 32.1841 -95.4775 260° West 480 552 31,400 -1,535 Descending FlightAware ADS-B
Tue 12:26:01 PM 32.1788 -95.5517 271° West 473 544 30,500 -2,308 Descending FlightAware ADS-B
Tue 12:26:13 PM 32.1788 -95.5828 271° West 470 541 29,900 -2,909 Descending FlightAware ADS-B
Tue 12:26:34 PM 32.1791 -95.6341 271° West 467 537 28,900 -2,897 Descending FlightAware ADS-B
Tue 12:26:42 PM 32.1794 -95.6574 271° West 465 535 28,500 -2,923 Descending FlightAware ADS-B
Tue 12:27:13 PM 32.1801 -95.7365 271° West 458 527 27,000 -2,656 Descending FlightAware ADS-B
Tue 12:27:43 PM 32.1810 -95.8051 271° West 449 517 25,800 -2,300 Descending FlightAware ADS-B
Tue 12:28:13 PM 32.1815 -95.8512 271° West 443 510 24,700 -2,100 Descending FlightAware ADS-B
Tue 12:28:23 PM 32.1821 -95.9031 271° West 429 494 24,400 -1,105 Descending FlightAware ADS-B
Tue 12:28:51 PM 32.1829 -95.9684 271° West 418 481 24,000 -800 Descending FlightAware ADS-B (KHPY)
Tue 12:28:53 PM 32.1829 -95.9703 271° West 425 489 24,000 -800 Level FlightAware ADS-B
Tue 12:29:21 PM 32.1850 -96.0373 274° West 410 472 23,600 -1,200 Descending FlightAware ADS-B (KHPY)
Tue 12:29:28 PM 32.1861 -96.0508 277° West 408 470 23,300 -2,600 Descending FlightAware ADS-B
Tue 12:29:51 PM 32.1926 -96.0981 282° West 407 468 22,300 -2,545 Descending FlightAware ADS-B (KHPY)
Tue 12:30:01 PM 32.1973 -96.1225 284° West 407 468 21,900 -2,471 Descending FlightAware ADS-B (KHPY)
Tue 12:30:08 PM 32.2010 -96.1387 286° West 405 466 21,600 -1,742 Descending FlightAware ADS-B
Tue 12:30:32 PM 32.2146 -96.1863 291° West 399 459 21,000 -1,650 Descending FlightAware ADS-B (KHPY)
Tue 12:30:48 PM 32.2205 -96.2039 292° West 397 457 20,500 -2,276 Descending FlightAware ADS-B
Tue 12:31:01 PM 32.2323 -96.2344 298° West 390 449 19,900 -2,800 Descending FlightAware ADS-B (KHPY)
Tue 12:31:03 PM 32.2370 -96.2453 287° West 404 465 19,800 -2,600 Descending FlightAware ADS-B
Tue 12:31:31 PM 32.2617 -96.2942 302° West 387 445 18,600 -2,625 Descending FlightAware ADS-B (KHPY)
Tue 12:31:51 PM 32.2370 -96.2453 287° West 404 465 17,700 -2,600 Descending FlightAware ADS-B
Tue 12:32:01 PM 32.2978 -96.3508 311° West 380 437 17,300 -2,550 Descending FlightAware ADS-B (KHPY)
Tue 12:32:31 PM 32.3323 -96.3942 315° West 376 433 16,000 -2,277 Descending FlightAware ADS-B (KHPY)
Tue 12:34:47 PM 32.4877 -96.5754 315° West 353 406 11,000 -1,866 Descending FlightAware ADS-B
Tue 12:35:15 PM 32.5223 -96.6168 315° West 313 360 10,900 -113 Descending FlightAware ADS-B
Tue 12:35:40 PM 32.5299 -96.6261 315° West 306 352 10,900  Level FlightAware ADS-B
Tue 12:35:57 PM 32.5655 -96.6685 315° West 306 352 10,900  Level FlightAware ADS-B
Tue 12:36:56 PM 32.6237 -96.7371 315° West 301 346 10,900  Level FlightAware ADS-B
Tue 12:37:26 PM 32.6433 -96.7605 314° West 281 323 10,900  Level FlightAware ADS-B
Tue 12:38:08 PM 32.6846 -96.8101 314° West 260 299 10,900  Level FlightAware ADS-B
Tue 12:38:46 PM 32.7173 -96.8492 314° West 258 297 10,900  Level FlightAware ADS-B
Tue 12:39:27 PM 32.7528 -96.8916 315° West 258 297 10,900  Level FlightAware ADS-B
Tue 12:39:46 PM 32.7724 -96.9029 348° North 252 290 10,900 -146 Level FlightAware ADS-B
Tue 12:40:08 PM 32.7963 -96.9032 359° North 246 283 10,800 -915 Descending FlightAware ADS-B
Tue 12:40:45 PM 32.8392 -96.9029 360° North 247 284 10,000 -1,322 Descending FlightAware ADS-B
Tue 12:41:07 PM 32.8652 -96.9029 180° South 245 282 9,500 -1,355 Descending FlightAware ADS-B
Tue 12:41:16 PM 32.8770 -96.9030 North 244 281 9,300 -1,200 Descending FlightAware ADS-B
Tue 12:41:27 PM 32.8873 -96.9031 359° North 243 280 9,100 -1,000 Descending FlightAware ADS-B
Tue 12:41:46 PM 32.9089 -96.9034 359° North 241 277 8,800 -1,050 Descending FlightAware ADS-B
Tue 12:42:07 PM 32.9326 -96.9038 359° North 239 275 8,400 -1,286 Descending FlightAware ADS-B
Tue 12:42:28 PM 32.9557 -96.9042 359° North 238 274 7,900 -1,350 Descending FlightAware ADS-B
Tue 12:42:47 PM 32.9768 -96.9045 359° North 238 274 7,500 -1,077 Descending FlightAware ADS-B
Tue 12:43:07 PM 32.9980 -96.9047 359° North 237 273 7,200 -1,143 Descending FlightAware ADS-B
Tue 12:43:29 PM 33.0225 -96.9051 359° North 236 272 6,700 -1,317 Descending FlightAware ADS-B
Tue 12:43:48 PM 33.0401 -96.9053 359° North 235 270 6,300 -1,250 Descending FlightAware ADS-B
Tue 12:44:17 PM 33.0730 -96.9178 331° Northwest 237 273 5,700 -1,176 Descending FlightAware ADS-B
Tue 12:44:39 PM 33.0937 -96.9324 321° Northwest 235 270 5,300 -1,050 Descending FlightAware ADS-B
Tue 12:44:57 PM 33.1029 -96.9520 282° West 231 266 5,000 -769 Descending FlightAware ADS-B
Tue 12:45:18 PM 33.1042 -96.9780 272° West 218 251 4,800 -1,171 Descending FlightAware ADS-B
Tue 12:45:38 PM 33.0998 -97.0000 234° Southwest 208 239 4,200 -1,950 Descending FlightAware ADS-B
Tue 12:45:58 PM 33.0843 -97.0126 205° Southwest 201 231 3,500 -1,650 Descending FlightAware ADS-B
Tue 12:46:18 PM 33.0676 -97.0219 205° Southwest 191 220 3,100 -923 Descending FlightAware ADS-B
Tue 12:46:37 PM 33.0524 -97.0255 360° North 180 207 2,900 -769 Descending FlightAware ADS-B
Tue 12:46:57 PM 33.0356 -97.0250 179° South 183 211 2,600 -878 Descending FlightAware ADS-B
Tue 12:47:18 PM 33.0173 -97.0253 181° South 180 207 2,300 -857 Descending FlightAware ADS-B
Tue 12:47:39 PM 33.0024 -97.0256 180° South 170 196 2,000 -706 Descending FlightAware ADS-B
Tue 12:48:09 PM 32.9791 -97.0256 179° South 136 157 1,700 -667 Descending FlightAware ADS-B
Tue 12:48:24 PM 32.9723 -97.0256 180° South 136 157 1,500 -628 Descending FlightAware ADS-B
Tue 12:49:35 PM 32.9333 -97.0167 180° South 135 155 800 -358 Descending Dallas / Fort Worth TRACON
Tue 12:50:38 PM 32.8953 -97.0261 192° South 134 154 700 -95 Descending Fort Worth Center

Login

Don't have an account? Register now (free) for customized features, flight alerts, and more!